Startpagina
METAR-TAF:

METAR-TAF

Vliegvelden :

Bujumbura, Burundi

Luchthaven Bujumbura

breedte: 03-19S, lengte: 029-19E, hoogte: 782 m

METAR: ontbreekt

Tijdstip: 18:39 (16:39 UTC)

Verwachting

Dit bericht is 7 uur en het 39 minuten geleden gemaakt, om 09:00 UTC
Verwachting geldig van 30 om 12 UTC tot 01 om 18 UTC
Wind 10 kt uit het zuiden met uitschieters tot 15 kt
Zicht 10 km of meer
Weinig wolken op 3000 ft
Gebroken wolken op 12000 ft
Weinig wolken op 8000 ft
Weinig wolken op 3000 ft
Gebroken wolken op 10000 ft
Kans 30%
tussen TE en het MP UTC
Zicht: 7000 m
Weinig wolken op 3500 ft
regenbuien, onweer, regen

TAF: HBBA 300900Z 3012/0118 18010G15KT 9/9 FEW030 BKN120 BECMG3017/3019 VRB02KT CAVOK BECMG0103/0105 36006KT 9999 FEW080 BECMG0107/0109 18010G15KT 9999 FEW030 BKN100 PROB30 TEMPO0113/0116 7000 SHRA OR TSRA FEW035 CB

Waarnemingen en weersverwachtingen van meer dan 4000 vliegvelden (METAR en TAF).

De beschikbare stations zijn de gele en rode punten op de kaart.

Ga met uw muis naar het station om de naam te zien.

Klik dan om waarnemingen en weersverwachtingen te zien.

kaart wijzigen: klik op de groene knoppen met een zwart kruis om in te zoomen, op de groene knop met een streepje om uit te zoomen of op de groene pijlen voor aangrenzende kaarten.


METAR-TAF: